createdAt,value
2023-07-27T00:00:00.729Z,0.65
2023-07-27T00:02:31.623Z,0.77
2023-07-27T00:05:02.471Z,0.70
2023-07-27T00:07:34.468Z,1.10
2023-07-27T00:10:05.328Z,0.63
2023-07-27T00:12:36.297Z,0.60
2023-07-27T00:15:11.006Z,0.80
2023-07-27T00:17:42.086Z,0.47
2023-07-27T00:20:14.084Z,1.10
2023-07-27T00:22:45.067Z,0.70
2023-07-27T00:25:15.970Z,0.90
2023-07-27T00:27:46.968Z,0.65
2023-07-27T00:30:20.489Z,0.60
2023-07-27T00:32:51.383Z,0.85
2023-07-27T00:35:22.274Z,0.68
2023-07-27T00:37:53.165Z,0.98
2023-07-27T00:40:24.184Z,1.10
2023-07-27T00:42:55.128Z,1.00
2023-07-27T00:45:30.275Z,1.00
2023-07-27T00:48:01.285Z,0.93
2023-07-27T00:50:32.248Z,0.70
2023-07-27T00:53:03.417Z,0.80
2023-07-27T00:55:34.881Z,1.38
2023-07-27T00:58:06.240Z,1.50
2023-07-27T01:00:40.406Z,1.20
2023-07-27T01:03:11.370Z,1.80
2023-07-27T01:05:42.314Z,1.67
2023-07-27T01:08:13.205Z,1.35
2023-07-27T01:10:53.850Z,1.15
2023-07-27T01:13:30.596Z,1.40
2023-07-27T01:16:14.017Z,1.75
2023-07-27T01:18:52.364Z,1.80
2023-07-27T01:21:27.776Z,1.52
2023-07-27T01:24:23.175Z,1.85
2023-07-27T01:27:18.118Z,1.35
2023-07-27T01:30:17.623Z,2.35
2023-07-27T01:32:56.745Z,2.33
2023-07-27T01:35:31.176Z,1.85
2023-07-27T01:38:04.255Z,1.83
2023-07-27T01:40:37.432Z,1.98
2023-07-27T01:43:08.918Z,1.98
2023-07-27T01:45:40.570Z,2.65
2023-07-27T01:48:16.426Z,2.13
2023-07-27T01:50:49.393Z,2.85
2023-07-27T01:53:21.951Z,1.85
2023-07-27T01:55:55.419Z,2.28
2023-07-27T01:58:28.131Z,2.60
2023-07-27T02:00:59.571Z,2.30
2023-07-27T02:03:34.594Z,2.13
2023-07-27T02:06:06.964Z,2.13
2023-07-27T02:08:37.897Z,2.30
2023-07-27T02:11:10.660Z,2.50
2023-07-27T02:13:49.461Z,2.22
2023-07-27T02:16:27.191Z,2.33
2023-07-27T02:19:04.517Z,2.65
2023-07-27T02:21:36.287Z,2.25
2023-07-27T02:24:09.347Z,2.05
2023-07-27T02:26:40.491Z,2.10
2023-07-27T02:29:12.096Z,2.50
2023-07-27T02:31:42.975Z,2.10
2023-07-27T02:34:16.467Z,2.08
2023-07-27T02:36:47.438Z,2.30
2023-07-27T02:39:18.356Z,2.20
2023-07-27T02:41:49.300Z,2.30
2023-07-27T02:44:24.089Z,1.92
2023-07-27T02:46:54.855Z,2.60
2023-07-27T02:49:28.399Z,2.40
2023-07-27T02:52:00.322Z,2.20
2023-07-27T02:54:31.129Z,2.42
2023-07-27T02:57:02.699Z,2.15
2023-07-27T02:59:41.729Z,2.03
2023-07-27T03:02:13.247Z,2.15
2023-07-27T03:04:48.916Z,2.17
2023-07-27T03:07:20.189Z,2.03
2023-07-27T03:09:54.431Z,2.53
2023-07-27T03:12:25.498Z,2.53
2023-07-27T03:14:56.408Z,2.30
2023-07-27T03:17:27.372Z,2.30
2023-07-27T03:20:01.127Z,2.20
2023-07-27T03:22:32.170Z,2.10
2023-07-27T03:25:03.184Z,2.85
2023-07-27T03:27:34.048Z,2.13
2023-07-27T03:30:05.017Z,1.98
2023-07-27T03:32:36.115Z,2.10
2023-07-27T03:35:10.808Z,2.25
2023-07-27T03:37:41.713Z,2.15
2023-07-27T03:40:13.884Z,2.58
2023-07-27T03:42:44.699Z,2.38
2023-07-27T03:45:17.229Z,2.65
2023-07-27T03:47:49.804Z,2.42
2023-07-27T03:50:23.561Z,2.47
2023-07-27T03:52:54.958Z,2.85
2023-07-27T03:55:26.118Z,2.35
2023-07-27T03:57:56.938Z,2.33
2023-07-27T04:00:27.889Z,2.50
2023-07-27T04:02:58.978Z,2.45
2023-07-27T04:05:33.097Z,2.10
2023-07-27T04:08:04.184Z,2.28
2023-07-27T04:10:35.036Z,2.05
2023-07-27T04:13:06.028Z,2.08
2023-07-27T04:15:39.303Z,2.33
2023-07-27T04:18:10.621Z,2.22
2023-07-27T04:20:44.096Z,2.25
2023-07-27T04:23:14.944Z,2.58
2023-07-27T04:25:45.808Z,1.95
2023-07-27T04:28:16.837Z,2.58
2023-07-27T04:30:47.750Z,2.30
2023-07-27T04:33:18.685Z,2.90
2023-07-27T04:35:52.235Z,2.22
2023-07-27T04:38:23.162Z,2.72
2023-07-27T04:40:54.927Z,2.60
2023-07-27T04:43:25.822Z,2.65
2023-07-27T04:45:56.722Z,2.42
2023-07-27T04:48:27.698Z,2.17
2023-07-27T04:51:01.297Z,2.42
2023-07-27T04:53:32.160Z,2.72
2023-07-27T04:56:03.418Z,2.85
2023-07-27T04:58:34.391Z,2.80
2023-07-27T05:01:07.020Z,2.78
2023-07-27T05:03:38.119Z,2.92
2023-07-27T05:06:11.676Z,2.80
2023-07-27T05:08:42.480Z,2.72
2023-07-27T05:11:13.612Z,2.72
2023-07-27T05:13:44.526Z,2.63
2023-07-27T05:16:15.435Z,2.80
2023-07-27T05:18:46.318Z,2.40
2023-07-27T05:21:19.809Z,2.60
2023-07-27T05:23:51.131Z,2.33
2023-07-27T05:26:21.909Z,2.60
2023-07-27T05:28:52.762Z,2.25
2023-07-27T05:31:23.641Z,2.20
2023-07-27T05:33:54.480Z,2.80
2023-07-27T05:36:27.911Z,2.63
2023-07-27T05:38:59.317Z,2.67
2023-07-27T05:41:30.047Z,2.60
2023-07-27T05:44:01.017Z,2.50
2023-07-27T05:46:32.248Z,2.45
2023-07-27T05:49:03.580Z,2.22
2023-07-27T05:51:37.104Z,2.58
2023-07-27T05:54:08.266Z,2.35
2023-07-27T05:56:39.185Z,2.55
2023-07-27T05:59:09.998Z,2.30
2023-07-27T06:01:40.899Z,2.38
2023-07-27T06:04:11.922Z,2.28
2023-07-27T06:06:49.195Z,2.35
2023-07-27T06:09:20.307Z,2.33
2023-07-27T06:11:51.133Z,2.65
2023-07-27T06:14:22.260Z,2.38
2023-07-27T06:16:53.281Z,2.67
2023-07-27T06:19:24.134Z,2.22
2023-07-27T06:21:57.824Z,2.40
2023-07-27T06:24:28.800Z,2.05
2023-07-27T06:26:59.727Z,2.40
2023-07-27T06:29:30.681Z,2.17
2023-07-27T06:32:01.929Z,2.63
2023-07-27T06:34:32.893Z,2.97
2023-07-27T06:37:07.261Z,2.80
2023-07-27T06:39:38.242Z,3.90
2023-07-27T06:42:09.115Z,2.65
2023-07-27T06:44:40.371Z,2.97
2023-07-27T06:47:11.729Z,3.53
2023-07-27T06:49:42.737Z,2.60
2023-07-27T06:52:16.171Z,2.50
2023-07-27T06:54:46.957Z,3.10
2023-07-27T06:57:18.142Z,2.42
2023-07-27T06:59:49.654Z,3.60
2023-07-27T07:02:20.532Z,2.60
2023-07-27T07:04:51.727Z,3.33
2023-07-27T07:07:25.593Z,2.85
2023-07-27T07:09:56.582Z,3.95
2023-07-27T07:12:27.449Z,4.20
2023-07-27T07:15:00.639Z,3.20
2023-07-27T07:17:31.578Z,3.72
2023-07-27T07:20:06.470Z,3.50
2023-07-27T07:22:40.248Z,3.20
2023-07-27T07:25:11.701Z,3.88
2023-07-27T07:27:42.857Z,4.47
2023-07-27T07:30:15.527Z,4.60
2023-07-27T07:32:46.706Z,4.75
2023-07-27T07:35:17.645Z,3.40
2023-07-27T07:37:51.559Z,4.28
2023-07-27T07:40:25.947Z,2.70
2023-07-27T07:42:56.897Z,4.78
2023-07-27T07:45:27.935Z,3.83
2023-07-27T07:47:58.855Z,3.83
2023-07-27T07:50:30.604Z,3.45
2023-07-27T07:53:04.582Z,3.55
2023-07-27T07:55:39.337Z,3.97
2023-07-27T07:58:10.399Z,3.85
2023-07-27T08:00:41.315Z,3.47
2023-07-27T08:03:12.797Z,4.43
2023-07-27T08:05:46.170Z,4.43
2023-07-27T08:08:19.708Z,4.15
2023-07-27T08:10:50.824Z,4.82
2023-07-27T08:13:22.187Z,4.82
2023-07-27T08:15:56.139Z,4.60
2023-07-27T08:18:29.249Z,3.90
2023-07-27T08:21:04.444Z,4.40
2023-07-27T08:23:38.165Z,4.97
2023-07-27T08:26:12.696Z,4.43
2023-07-27T08:28:43.666Z,4.63
2023-07-27T08:31:14.692Z,4.85
2023-07-27T08:33:45.655Z,4.32
2023-07-27T08:36:16.642Z,4.32
2023-07-27T08:38:50.140Z,4.28
2023-07-27T08:41:21.100Z,4.75
2023-07-27T08:43:52.558Z,4.93
2023-07-27T08:46:24.482Z,5.22
2023-07-27T08:48:57.193Z,5.10
2023-07-27T08:51:28.253Z,4.88
2023-07-27T08:54:01.893Z,5.53
2023-07-27T08:56:33.440Z,6.00
2023-07-27T08:59:04.872Z,5.47
2023-07-27T09:01:36.820Z,5.38
2023-07-27T09:04:08.154Z,5.63
2023-07-27T09:06:45.074Z,5.55
2023-07-27T09:09:21.604Z,4.55
2023-07-27T09:11:52.514Z,5.22
2023-07-27T09:14:23.724Z,5.00
2023-07-27T09:16:56.911Z,5.60
2023-07-27T09:19:28.129Z,5.32
2023-07-27T09:22:01.431Z,6.40
2023-07-27T09:24:36.560Z,5.63
2023-07-27T09:27:14.005Z,5.00
2023-07-27T09:29:45.622Z,6.35
2023-07-27T09:32:16.724Z,5.80
2023-07-27T09:34:48.551Z,5.07
2023-07-27T09:37:19.963Z,6.43
2023-07-27T09:39:54.522Z,5.40
2023-07-27T09:42:27.224Z,5.55
2023-07-27T09:44:58.242Z,6.10
2023-07-27T09:47:32.682Z,6.25
2023-07-27T09:50:04.462Z,5.65
2023-07-27T09:52:35.876Z,5.55
2023-07-27T09:55:10.400Z,5.97
2023-07-27T09:57:41.982Z,5.93
2023-07-27T10:00:14.635Z,6.40
2023-07-27T10:02:46.520Z,6.15
2023-07-27T10:05:17.714Z,6.35
2023-07-27T10:07:54.226Z,6.28
2023-07-27T10:13:15.222Z,6.38
2023-07-27T10:15:47.693Z,5.82
2023-07-27T10:18:19.263Z,5.93
2023-07-27T10:20:50.517Z,5.97
2023-07-27T10:23:22.930Z,5.97
2023-07-27T10:26:11.426Z,5.45
2023-07-27T10:28:45.182Z,6.93
2023-07-27T10:31:25.285Z,6.20
2023-07-27T10:34:14.737Z,5.40
2023-07-27T10:36:58.920Z,5.07
2023-07-27T10:39:32.796Z,6.00
2023-07-27T10:42:08.851Z,5.32
2023-07-27T10:44:48.246Z,5.60
2023-07-27T10:47:20.619Z,5.60
2023-07-27T10:49:53.845Z,5.82
2023-07-27T10:52:26.683Z,5.50
2023-07-27T10:55:00.033Z,5.13
2023-07-27T10:57:36.515Z,4.78
2023-07-27T11:00:10.868Z,5.80
2023-07-27T11:02:44.658Z,5.10
2023-07-27T11:05:17.528Z,5.32
2023-07-27T11:07:48.833Z,5.20
2023-07-27T11:10:21.679Z,5.05
2023-07-27T11:12:56.746Z,5.40
2023-07-27T11:15:29.242Z,5.45
2023-07-27T11:18:02.540Z,5.28
2023-07-27T11:20:34.337Z,4.75
2023-07-27T11:23:05.332Z,4.80
2023-07-27T11:25:36.767Z,5.38
2023-07-27T11:28:11.815Z,6.20
2023-07-27T11:30:43.784Z,5.80
2023-07-27T11:33:15.533Z,5.65
2023-07-27T11:35:50.183Z,5.50
2023-07-27T11:38:22.870Z,5.40
2023-07-27T11:41:03.328Z,5.47
2023-07-27T11:43:46.797Z,5.13
2023-07-27T11:46:18.624Z,4.80
2023-07-27T11:49:04.737Z,5.63
2023-07-27T11:51:37.958Z,5.15
2023-07-27T11:54:08.982Z,4.82
2023-07-27T11:56:40.921Z,5.10
2023-07-27T11:59:18.357Z,4.82
2023-07-27T12:01:49.346Z,4.78
2023-07-27T12:04:21.076Z,5.57
2023-07-27T12:06:52.549Z,5.57
2023-07-27T12:09:24.026Z,5.50
2023-07-27T12:11:54.954Z,5.70
2023-07-27T12:14:28.590Z,5.47
2023-07-27T12:17:01.659Z,4.70
2023-07-27T12:19:30.560Z,4.95
2023-07-27T12:24:52.724Z,4.90
2023-07-27T12:27:23.651Z,5.57
2023-07-27T12:29:57.466Z,4.85
2023-07-27T12:32:28.477Z,5.50
2023-07-27T12:37:36.831Z,4.65
2023-07-27T12:40:10.275Z,4.53
2023-07-27T12:42:41.354Z,4.80
2023-07-27T12:45:15.342Z,5.28
2023-07-27T12:47:46.364Z,5.03
2023-07-27T12:50:17.590Z,4.47
2023-07-27T12:52:50.308Z,4.20
2023-07-27T12:55:21.449Z,4.10
2023-07-27T12:57:52.296Z,4.10
2023-07-27T13:00:26.300Z,3.58
2023-07-27T13:02:57.405Z,3.90
2023-07-27T13:05:28.884Z,4.93
2023-07-27T13:08:00.369Z,3.58
2023-07-27T13:10:31.341Z,4.07
2023-07-27T13:13:02.253Z,3.85
2023-07-27T13:15:35.760Z,3.95
2023-07-27T13:18:07.638Z,3.83
2023-07-27T13:20:39.947Z,4.10
2023-07-27T13:23:10.886Z,3.20
2023-07-27T13:25:42.146Z,3.25
2023-07-27T13:28:13.406Z,3.97
2023-07-27T13:30:47.048Z,3.42
2023-07-27T13:33:18.188Z,3.38
2023-07-27T13:35:49.173Z,2.88
2023-07-27T13:38:20.038Z,3.03
2023-07-27T13:40:51.112Z,3.20
2023-07-27T13:43:22.084Z,2.65
2023-07-27T13:45:56.154Z,3.47
2023-07-27T13:48:28.051Z,3.38
2023-07-27T13:50:59.062Z,3.42
2023-07-27T13:53:30.035Z,3.25
2023-07-27T13:56:01.056Z,3.13
2023-07-27T13:58:32.246Z,3.60
2023-07-27T14:01:06.043Z,3.33
2023-07-27T14:03:37.556Z,3.13
2023-07-27T14:06:08.805Z,2.75
2023-07-27T14:08:39.750Z,3.38
2023-07-27T14:11:11.523Z,3.08
2023-07-27T14:13:42.587Z,3.10
2023-07-27T14:16:16.123Z,2.55
2023-07-27T14:18:47.986Z,2.97
2023-07-27T14:21:18.863Z,3.05
2023-07-27T14:23:49.897Z,2.58
2023-07-27T14:26:25.271Z,2.95
2023-07-27T14:28:56.785Z,2.97
2023-07-27T14:31:30.520Z,2.92
2023-07-27T14:34:04.811Z,2.33
2023-07-27T14:41:45.031Z,2.80
2023-07-27T14:44:16.163Z,2.47
2023-07-27T14:46:49.713Z,2.60
2023-07-27T14:49:24.439Z,2.30
2023-07-27T14:51:55.877Z,2.47
2023-07-27T14:54:26.860Z,2.13
2023-07-27T14:59:43.397Z,2.30
2023-07-27T15:02:18.054Z,2.03
2023-07-27T15:07:23.076Z,2.20
2023-07-27T15:09:55.676Z,2.33
2023-07-27T15:12:26.642Z,2.10
2023-07-27T15:14:57.819Z,2.45
2023-07-27T15:17:31.385Z,2.30
2023-07-27T15:20:04.947Z,2.78
2023-07-27T15:22:37.497Z,3.20
2023-07-27T15:25:09.282Z,2.70
2023-07-27T15:27:40.323Z,3.08
2023-07-27T15:30:12.559Z,2.92
2023-07-27T15:32:46.258Z,2.88
2023-07-27T15:35:17.717Z,2.50
2023-07-27T15:37:48.663Z,3.10
2023-07-27T15:40:19.710Z,3.33
2023-07-27T15:42:50.936Z,3.28
2023-07-27T15:45:22.406Z,3.38
2023-07-27T15:47:55.876Z,3.50
2023-07-27T15:50:27.229Z,3.78
2023-07-27T15:52:58.143Z,3.45
2023-07-27T15:55:29.191Z,3.58
2023-07-27T15:58:00.226Z,3.65
2023-07-27T16:00:31.290Z,2.88
2023-07-27T16:03:04.818Z,3.03
2023-07-27T16:05:36.098Z,3.25
2023-07-27T16:08:07.618Z,3.05
2023-07-27T16:10:38.613Z,3.20
2023-07-27T16:13:09.690Z,3.90
2023-07-27T16:15:43.296Z,3.40
2023-07-27T16:18:16.780Z,3.30
2023-07-27T16:20:47.836Z,3.65
2023-07-27T16:23:19.330Z,2.55
2023-07-27T16:25:50.476Z,2.80
2023-07-27T16:28:21.434Z,3.05
2023-07-27T16:30:52.505Z,2.83
2023-07-27T16:33:26.005Z,2.63
2023-07-27T16:35:56.920Z,2.50
2023-07-27T16:38:31.141Z,2.67
2023-07-27T16:41:02.636Z,2.75
2023-07-27T16:43:33.833Z,2.83
2023-07-27T16:46:05.160Z,3.10
2023-07-27T16:48:38.837Z,2.08
2023-07-27T16:51:10.220Z,2.70
2023-07-27T16:53:41.252Z,2.25
2023-07-27T16:56:13.825Z,2.40
2023-07-27T16:58:46.551Z,2.10
2023-07-27T17:01:21.347Z,2.35
2023-07-27T17:03:54.892Z,2.00
2023-07-27T17:06:25.992Z,1.80
2023-07-27T17:08:57.006Z,2.22
2023-07-27T17:11:28.183Z,2.20
2023-07-27T17:13:59.126Z,1.90
2023-07-27T17:16:30.141Z,1.60
2023-07-27T17:19:03.865Z,2.10
2023-07-27T17:21:35.047Z,1.65
2023-07-27T17:24:05.982Z,2.15
2023-07-27T17:26:37.309Z,1.83
2023-07-27T17:29:08.445Z,1.92
2023-07-27T17:31:39.514Z,2.10
2023-07-27T17:34:13.100Z,1.98
2023-07-27T17:36:44.212Z,1.73
2023-07-27T17:39:15.275Z,1.60
2023-07-27T17:41:46.319Z,2.17
2023-07-27T17:44:17.266Z,1.90
2023-07-27T17:46:48.246Z,2.25
2023-07-27T17:49:21.880Z,1.67
2023-07-27T17:51:52.793Z,1.70
2023-07-27T17:54:23.718Z,1.70
2023-07-27T17:56:54.601Z,1.92
2023-07-27T17:59:25.496Z,1.88
2023-07-27T18:01:56.478Z,2.30
2023-07-27T18:04:30.092Z,2.10
2023-07-27T18:07:01.346Z,2.30
2023-07-27T18:09:34.966Z,2.17
2023-07-27T18:12:05.967Z,2.72
2023-07-27T18:14:36.926Z,2.50
2023-07-27T18:17:08.941Z,2.53
2023-07-27T18:19:42.596Z,3.00
2023-07-27T18:22:13.502Z,2.30
2023-07-27T18:24:44.417Z,2.10
2023-07-27T18:27:15.517Z,2.30
2023-07-27T18:29:46.352Z,1.95
2023-07-27T18:32:17.398Z,2.00
2023-07-27T18:34:51.110Z,2.60
2023-07-27T18:37:22.094Z,2.03
2023-07-27T18:39:52.937Z,2.00
2023-07-27T18:42:24.029Z,2.17
2023-07-27T18:44:55.212Z,2.13
2023-07-27T18:47:26.377Z,2.55
2023-07-27T18:50:00.273Z,2.22
2023-07-27T18:52:31.891Z,2.10
2023-07-27T18:55:02.770Z,2.25
2023-07-27T18:57:33.718Z,2.22
2023-07-27T19:00:06.000Z,2.40
2023-07-27T19:02:36.850Z,2.22
2023-07-27T19:05:11.218Z,2.10
2023-07-27T19:07:42.114Z,2.08
2023-07-27T19:10:13.753Z,2.13
2023-07-27T19:12:44.807Z,2.20
2023-07-27T19:15:16.213Z,1.80
2023-07-27T19:17:47.152Z,1.90
2023-07-27T19:20:22.331Z,2.20
2023-07-27T19:22:53.424Z,2.20
2023-07-27T19:25:24.423Z,1.95
2023-07-27T19:27:55.307Z,2.08
2023-07-27T19:30:26.345Z,1.80
2023-07-27T19:32:57.477Z,1.40
2023-07-27T19:35:31.517Z,1.63
2023-07-27T19:38:02.665Z,1.88
2023-07-27T19:40:33.651Z,1.30
2023-07-27T19:43:04.600Z,1.67
2023-07-27T19:45:35.689Z,1.42
2023-07-27T19:48:06.809Z,1.50
2023-07-27T19:50:40.434Z,1.50
2023-07-27T19:53:11.392Z,1.40
2023-07-27T19:55:42.339Z,1.40
2023-07-27T19:58:13.227Z,1.70
2023-07-27T20:00:44.329Z,1.33
2023-07-27T20:03:15.369Z,1.48
2023-07-27T20:05:49.040Z,1.73
2023-07-27T20:08:28.334Z,1.55
2023-07-27T20:11:09.839Z,1.65
2023-07-27T20:13:40.821Z,1.45
2023-07-27T20:16:11.855Z,1.77
2023-07-27T20:18:44.368Z,1.85
2023-07-27T20:21:18.437Z,1.58
2023-07-27T20:23:50.011Z,1.88
2023-07-27T20:26:20.916Z,1.88
2023-07-27T20:28:51.908Z,1.48
2023-07-27T20:31:23.080Z,1.77
2023-07-27T20:33:54.173Z,1.77
2023-07-27T20:36:27.996Z,1.52
2023-07-27T20:39:00.744Z,1.77
2023-07-27T20:41:31.914Z,1.77
2023-07-27T20:44:02.741Z,1.60
2023-07-27T20:46:34.033Z,1.67
2023-07-27T20:49:05.185Z,2.00
2023-07-27T20:51:41.054Z,1.52
2023-07-27T20:54:11.956Z,1.52
2023-07-27T20:56:42.890Z,1.60
2023-07-27T20:59:14.258Z,1.48
2023-07-27T21:01:45.401Z,1.45
2023-07-27T21:04:16.411Z,1.60
2023-07-27T21:06:50.031Z,1.38
2023-07-27T21:09:21.051Z,1.50
2023-07-27T21:11:52.173Z,1.30
2023-07-27T21:14:25.451Z,1.10
2023-07-27T21:16:56.439Z,1.55
2023-07-27T21:19:30.403Z,1.00
2023-07-27T21:22:04.186Z,1.58
2023-07-27T21:24:37.983Z,0.90
2023-07-27T21:27:11.377Z,1.20
2023-07-27T21:29:42.575Z,1.20
2023-07-27T21:32:13.967Z,1.13
2023-07-27T21:34:44.948Z,1.00
2023-07-27T21:37:18.574Z,1.38
2023-07-27T21:40:00.586Z,1.02
2023-07-27T21:42:39.500Z,1.02
2023-07-27T21:45:11.575Z,1.02
2023-07-27T21:47:42.553Z,0.90
2023-07-27T21:50:14.795Z,1.15
2023-07-27T21:52:48.488Z,0.80
2023-07-27T21:55:19.531Z,0.98
2023-07-27T21:57:50.562Z,0.85
2023-07-27T22:00:21.733Z,0.80
2023-07-27T22:02:52.843Z,0.90
2023-07-27T22:05:23.945Z,1.15
2023-07-27T22:07:57.505Z,1.00
2023-07-27T22:10:28.518Z,1.00
2023-07-27T22:12:59.419Z,0.80
2023-07-27T22:15:30.479Z,1.38
2023-07-27T22:18:01.727Z,0.88
2023-07-27T22:20:32.741Z,0.75
2023-07-27T22:23:06.189Z,1.13
2023-07-27T22:25:36.972Z,1.05
2023-07-27T22:28:08.101Z,1.35
2023-07-27T22:30:39.254Z,1.30
2023-07-27T22:33:10.153Z,0.80
2023-07-27T22:35:43.970Z,1.02
2023-07-27T22:38:18.569Z,1.58
2023-07-27T22:40:57.474Z,1.13
2023-07-27T22:43:28.975Z,1.20
2023-07-27T22:46:00.396Z,1.00
2023-07-27T22:48:31.341Z,1.23
2023-07-27T22:51:02.327Z,0.90
2023-07-27T22:53:35.938Z,1.10
2023-07-27T22:56:07.125Z,1.00
2023-07-27T22:58:38.176Z,0.75
2023-07-27T23:01:15.158Z,0.82
2023-07-27T23:03:46.394Z,0.90
2023-07-27T23:06:17.441Z,1.02
2023-07-27T23:08:50.937Z,1.30
2023-07-27T23:11:21.825Z,0.90
2023-07-27T23:13:52.737Z,1.00
2023-07-27T23:16:23.608Z,1.00
2023-07-27T23:18:54.550Z,1.23
2023-07-27T23:21:25.461Z,1.35
2023-07-27T23:23:58.929Z,0.95
2023-07-27T23:26:29.833Z,1.20
2023-07-27T23:29:00.960Z,1.00
2023-07-27T23:31:31.945Z,1.33
2023-07-27T23:34:03.244Z,1.15
2023-07-27T23:36:34.422Z,1.60
2023-07-27T23:39:08.185Z,1.20
2023-07-27T23:41:39.109Z,1.33
2023-07-27T23:44:10.081Z,1.35
2023-07-27T23:46:41.013Z,1.48
2023-07-27T23:49:12.026Z,1.27
2023-07-27T23:51:43.522Z,1.50
2023-07-27T23:54:17.307Z,1.20
2023-07-27T23:56:48.968Z,1.25
2023-07-27T23:59:19.836Z,1.33
